sensor_id;sensor_type;location;lat;lon;timestamp;P1;durP1;ratioP1;P2;durP2;ratioP2
20443;SDS011;10381;53.730;10.010;2023-02-28T00:02:10;32.63;;;24.30;;
20443;SDS011;10381;53.730;10.010;2023-02-28T00:06:11;29.93;;;23.97;;
20443;SDS011;10381;53.730;10.010;2023-02-28T00:10:12;31.93;;;23.83;;
20443;SDS011;10381;53.730;10.010;2023-02-28T00:14:14;30.02;;;23.83;;
20443;SDS011;10381;53.730;10.010;2023-02-28T00:18:15;26.43;;;22.37;;
20443;SDS011;10381;53.730;10.010;2023-02-28T00:22:19;28.83;;;23.63;;
20443;SDS011;10381;53.730;10.010;2023-02-28T00:26:20;30.60;;;23.67;;
20443;SDS011;10381;53.730;10.010;2023-02-28T00:30:22;32.20;;;23.60;;
20443;SDS011;10381;53.730;10.010;2023-02-28T00:34:23;29.42;;;24.38;;
20443;SDS011;10381;53.730;10.010;2023-02-28T00:38:23;29.42;;;25.38;;
20443;SDS011;10381;53.730;10.010;2023-02-28T00:42:23;30.90;;;24.93;;
20443;SDS011;10381;53.730;10.010;2023-02-28T00:46:24;28.30;;;24.33;;
20443;SDS011;10381;53.730;10.010;2023-02-28T00:50:24;31.60;;;24.93;;
20443;SDS011;10381;53.730;10.010;2023-02-28T00:54:25;33.80;;;24.47;;
20443;SDS011;10381;53.730;10.010;2023-02-28T00:58:25;29.48;;;24.38;;
20443;SDS011;10381;53.730;10.010;2023-02-28T01:02:26;36.22;;;24.70;;
20443;SDS011;10381;53.730;10.010;2023-02-28T01:06:26;29.48;;;24.10;;
20443;SDS011;10381;53.730;10.010;2023-02-28T01:10:27;31.00;;;25.40;;
20443;SDS011;10381;53.730;10.010;2023-02-28T01:14:31;29.95;;;25.92;;
20443;SDS011;10381;53.730;10.010;2023-02-28T01:18:31;32.20;;;26.23;;
20443;SDS011;10381;53.730;10.010;2023-02-28T01:22:31;35.88;;;27.38;;
20443;SDS011;10381;53.730;10.010;2023-02-28T01:26:32;31.37;;;27.03;;
20443;SDS011;10381;53.730;10.010;2023-02-28T01:30:32;34.53;;;27.50;;
20443;SDS011;10381;53.730;10.010;2023-02-28T01:34:33;31.00;;;26.13;;
20443;SDS011;10381;53.730;10.010;2023-02-28T01:38:33;34.10;;;26.67;;
20443;SDS011;10381;53.730;10.010;2023-02-28T01:42:33;33.92;;;29.25;;
20443;SDS011;10381;53.730;10.010;2023-02-28T01:46:34;36.95;;;28.48;;
20443;SDS011;10381;53.730;10.010;2023-02-28T01:50:36;42.80;;;28.15;;
20443;SDS011;10381;53.730;10.010;2023-02-28T01:54:41;39.95;;;27.10;;
20443;SDS011;10381;53.730;10.010;2023-02-28T01:58:41;43.30;;;27.00;;
20443;SDS011;10381;53.730;10.010;2023-02-28T02:02:42;37.00;;;27.77;;
20443;SDS011;10381;53.730;10.010;2023-02-28T02:06:46;34.70;;;27.98;;
20443;SDS011;10381;53.730;10.010;2023-02-28T02:10:48;33.50;;;26.73;;
20443;SDS011;10381;53.730;10.010;2023-02-28T02:36:42;40.90;;;32.88;;
20443;SDS011;10381;53.730;10.010;2023-02-28T02:45:25;37.03;;;32.53;;
20443;SDS011;10381;53.730;10.010;2023-02-28T02:49:30;35.70;;;31.90;;
20443;SDS011;10381;53.730;10.010;2023-02-28T02:53:33;39.13;;;31.45;;
20443;SDS011;10381;53.730;10.010;2023-02-28T02:57:46;34.65;;;30.88;;
20443;SDS011;10381;53.730;10.010;2023-02-28T03:01:57;39.35;;;32.80;;
20443;SDS011;10381;53.730;10.010;2023-02-28T03:06:01;37.60;;;32.42;;
20443;SDS011;10381;53.730;10.010;2023-02-28T03:10:03;44.00;;;31.30;;
20443;SDS011;10381;53.730;10.010;2023-02-28T03:14:39;34.10;;;28.77;;
20443;SDS011;10381;53.730;10.010;2023-02-28T03:27:24;36.95;;;31.38;;
20443;SDS011;10381;53.730;10.010;2023-02-28T03:35:51;40.10;;;31.90;;
20443;SDS011;10381;53.730;10.010;2023-02-28T03:39:59;40.08;;;35.90;;
20443;SDS011;10381;53.730;10.010;2023-02-28T03:44:08;44.50;;;35.28;;
20443;SDS011;10381;53.730;10.010;2023-02-28T03:48:17;43.05;;;36.13;;
20443;SDS011;10381;53.730;10.010;2023-02-28T03:52:25;40.83;;;36.63;;
20443;SDS011;10381;53.730;10.010;2023-02-28T03:56:39;49.35;;;37.28;;
20443;SDS011;10381;53.730;10.010;2023-02-28T04:00:45;42.75;;;38.15;;
20443;SDS011;10381;53.730;10.010;2023-02-28T04:04:49;45.13;;;39.53;;
20443;SDS011;10381;53.730;10.010;2023-02-28T04:08:50;45.78;;;40.97;;
20443;SDS011;10381;53.730;10.010;2023-02-28T04:12:51;49.78;;;40.33;;
20443;SDS011;10381;53.730;10.010;2023-02-28T04:16:51;47.23;;;42.43;;
20443;SDS011;10381;53.730;10.010;2023-02-28T04:20:52;45.33;;;40.55;;
20443;SDS011;10381;53.730;10.010;2023-02-28T04:24:52;49.20;;;41.93;;
20443;SDS011;10381;53.730;10.010;2023-02-28T04:28:54;49.50;;;44.20;;
20443;SDS011;10381;53.730;10.010;2023-02-28T04:32:54;53.53;;;44.97;;
20443;SDS011;10381;53.730;10.010;2023-02-28T04:36:56;50.03;;;44.55;;
20443;SDS011;10381;53.730;10.010;2023-02-28T04:40:57;52.72;;;47.25;;
20443;SDS011;10381;53.730;10.010;2023-02-28T04:44:58;50.05;;;44.78;;
20443;SDS011;10381;53.730;10.010;2023-02-28T04:48:58;58.50;;;49.03;;
20443;SDS011;10381;53.730;10.010;2023-02-28T04:52:59;53.63;;;47.85;;
20443;SDS011;10381;53.730;10.010;2023-02-28T04:56:59;53.27;;;47.53;;
20443;SDS011;10381;53.730;10.010;2023-02-28T05:01:03;58.00;;;51.80;;
20443;SDS011;10381;53.730;10.010;2023-02-28T05:05:12;57.88;;;52.00;;
20443;SDS011;10381;53.730;10.010;2023-02-28T05:09:17;58.90;;;52.53;;
20443;SDS011;10381;53.730;10.010;2023-02-28T05:13:18;57.00;;;51.03;;
20443;SDS011;10381;53.730;10.010;2023-02-28T05:17:18;58.57;;;51.37;;
20443;SDS011;10381;53.730;10.010;2023-02-28T05:21:26;57.43;;;51.40;;
20443;SDS011;10381;53.730;10.010;2023-02-28T05:25:30;61.30;;;52.22;;
20443;SDS011;10381;53.730;10.010;2023-02-28T05:29:30;62.20;;;54.77;;
20443;SDS011;10381;53.730;10.010;2023-02-28T05:33:30;63.00;;;54.60;;
20443;SDS011;10381;53.730;10.010;2023-02-28T05:37:31;67.70;;;53.70;;
20443;SDS011;10381;53.730;10.010;2023-02-28T05:41:31;59.27;;;52.87;;
20443;SDS011;10381;53.730;10.010;2023-02-28T05:45:31;60.35;;;51.75;;
20443;SDS011;10381;53.730;10.010;2023-02-28T05:49:31;60.85;;;52.45;;
20443;SDS011;10381;53.730;10.010;2023-02-28T05:53:32;60.15;;;53.08;;
20443;SDS011;10381;53.730;10.010;2023-02-28T05:57:33;59.75;;;52.20;;
20443;SDS011;10381;53.730;10.010;2023-02-28T06:01:35;63.00;;;52.10;;
20443;SDS011;10381;53.730;10.010;2023-02-28T06:05:40;62.05;;;53.83;;
20443;SDS011;10381;53.730;10.010;2023-02-28T06:09:40;59.90;;;52.53;;
20443;SDS011;10381;53.730;10.010;2023-02-28T06:13:41;56.40;;;50.20;;
20443;SDS011;10381;53.730;10.010;2023-02-28T06:17:41;61.70;;;51.50;;
20443;SDS011;10381;53.730;10.010;2023-02-28T06:21:43;62.47;;;52.35;;
20443;SDS011;10381;53.730;10.010;2023-02-28T06:25:46;72.15;;;55.38;;
20443;SDS011;10381;53.730;10.010;2023-02-28T06:29:46;68.38;;;54.03;;
20443;SDS011;10381;53.730;10.010;2023-02-28T06:33:47;66.30;;;51.40;;
20443;SDS011;10381;53.730;10.010;2023-02-28T06:37:47;71.75;;;55.13;;
20443;SDS011;10381;53.730;10.010;2023-02-28T06:41:47;69.80;;;55.63;;
20443;SDS011;10381;53.730;10.010;2023-02-28T06:45:48;68.03;;;55.05;;
20443;SDS011;10381;53.730;10.010;2023-02-28T06:49:49;66.55;;;53.47;;
20443;SDS011;10381;53.730;10.010;2023-02-28T06:53:50;68.20;;;51.25;;
20443;SDS011;10381;53.730;10.010;2023-02-28T06:57:50;65.53;;;52.03;;
20443;SDS011;10381;53.730;10.010;2023-02-28T07:01:51;63.73;;;51.10;;
20443;SDS011;10381;53.730;10.010;2023-02-28T07:05:51;62.50;;;51.33;;
20443;SDS011;10381;53.730;10.010;2023-02-28T07:09:52;64.57;;;51.67;;
20443;SDS011;10381;53.730;10.010;2023-02-28T07:13:53;63.80;;;49.33;;
20443;SDS011;10381;53.730;10.010;2023-02-28T07:17:53;63.80;;;52.15;;
20443;SDS011;10381;53.730;10.010;2023-02-28T07:21:54;65.87;;;49.47;;
20443;SDS011;10381;53.730;10.010;2023-02-28T07:25:54;61.05;;;51.03;;
20443;SDS011;10381;53.730;10.010;2023-02-28T07:29:54;65.57;;;51.13;;
20443;SDS011;10381;53.730;10.010;2023-02-28T07:33:54;70.72;;;51.25;;
20443;SDS011;10381;53.730;10.010;2023-02-28T07:37:59;62.47;;;49.55;;
20443;SDS011;10381;53.730;10.010;2023-02-28T07:42:00;65.20;;;49.15;;
20443;SDS011;10381;53.730;10.010;2023-02-28T07:46:04;47.60;;;42.08;;
20443;SDS011;10381;53.730;10.010;2023-02-28T07:50:07;45.95;;;37.15;;
20443;SDS011;10381;53.730;10.010;2023-02-28T07:54:10;41.67;;;30.50;;
20443;SDS011;10381;53.730;10.010;2023-02-28T07:58:11;43.88;;;30.17;;
20443;SDS011;10381;53.730;10.010;2023-02-28T08:02:12;35.97;;;28.47;;
20443;SDS011;10381;53.730;10.010;2023-02-28T08:06:15;41.03;;;30.73;;
20443;SDS011;10381;53.730;10.010;2023-02-28T08:10:20;47.53;;;31.17;;
20443;SDS011;10381;53.730;10.010;2023-02-28T08:14:20;35.20;;;27.53;;
20443;SDS011;10381;53.730;10.010;2023-02-28T08:18:21;41.55;;;28.95;;
20443;SDS011;10381;53.730;10.010;2023-02-28T08:22:22;39.40;;;27.67;;
20443;SDS011;10381;53.730;10.010;2023-02-28T08:26:22;130.23;;;49.70;;
20443;SDS011;10381;53.730;10.010;2023-02-28T08:30:23;58.60;;;30.73;;
20443;SDS011;10381;53.730;10.010;2023-02-28T08:34:23;32.90;;;21.70;;
20443;SDS011;10381;53.730;10.010;2023-02-28T08:38:23;20.90;;;18.73;;
20443;SDS011;10381;53.730;10.010;2023-02-28T08:42:24;20.83;;;18.48;;
20443;SDS011;10381;53.730;10.010;2023-02-28T08:46:24;20.33;;;18.15;;
20443;SDS011;10381;53.730;10.010;2023-02-28T08:50:24;28.03;;;19.03;;
20443;SDS011;10381;53.730;10.010;2023-02-28T08:54:25;20.42;;;18.40;;
20443;SDS011;10381;53.730;10.010;2023-02-28T08:58:25;19.50;;;17.50;;
20443;SDS011;10381;53.730;10.010;2023-02-28T09:02:26;19.10;;;16.48;;
20443;SDS011;10381;53.730;10.010;2023-02-28T09:06:26;17.02;;;15.52;;
20443;SDS011;10381;53.730;10.010;2023-02-28T09:10:27;21.27;;;15.85;;
20443;SDS011;10381;53.730;10.010;2023-02-28T09:14:27;14.97;;;13.47;;
20443;SDS011;10381;53.730;10.010;2023-02-28T09:18:27;11.80;;;10.63;;
20443;SDS011;10381;53.730;10.010;2023-02-28T09:22:28;16.48;;;11.20;;
20443;SDS011;10381;53.730;10.010;2023-02-28T09:26:29;10.48;;;9.57;;
20443;SDS011;10381;53.730;10.010;2023-02-28T09:30:29;8.32;;;7.53;;
20443;SDS011;10381;53.730;10.010;2023-02-28T09:34:30;8.82;;;7.57;;
20443;SDS011;10381;53.730;10.010;2023-02-28T09:38:30;12.15;;;7.93;;
20443;SDS011;10381;53.730;10.010;2023-02-28T09:42:32;16.45;;;7.90;;
20443;SDS011;10381;53.730;10.010;2023-02-28T09:46:43;17.33;;;7.47;;
20443;SDS011;10381;53.730;10.010;2023-02-28T09:50:48;8.85;;;7.28;;
20443;SDS011;10381;53.730;10.010;2023-02-28T09:54:51;9.98;;;7.70;;
20443;SDS011;10381;53.730;10.010;2023-02-28T09:58:54;8.45;;;7.30;;
20443;SDS011;10381;53.730;10.010;2023-02-28T10:07:17;11.30;;;7.80;;
20443;SDS011;10381;53.730;10.010;2023-02-28T10:11:23;12.82;;;8.75;;
20443;SDS011;10381;53.730;10.010;2023-02-28T10:15:25;25.25;;;12.68;;
20443;SDS011;10381;53.730;10.010;2023-02-28T10:19:44;8.43;;;7.72;;
20443;SDS011;10381;53.730;10.010;2023-02-28T10:23:47;9.95;;;7.35;;
20443;SDS011;10381;53.730;10.010;2023-02-28T10:27:49;8.43;;;7.63;;
20443;SDS011;10381;53.730;10.010;2023-02-28T10:31:53;13.50;;;7.70;;
20443;SDS011;10381;53.730;10.010;2023-02-28T10:35:53;13.53;;;7.93;;
20443;SDS011;10381;53.730;10.010;2023-02-28T10:39:54;8.23;;;7.13;;
20443;SDS011;10381;53.730;10.010;2023-02-28T10:44:12;7.78;;;6.97;;
20443;SDS011;10381;53.730;10.010;2023-02-28T10:48:39;7.70;;;7.00;;
20443;SDS011;10381;53.730;10.010;2023-02-28T10:52:40;11.98;;;7.50;;
20443;SDS011;10381;53.730;10.010;2023-02-28T10:56:40;8.45;;;7.28;;
20443;SDS011;10381;53.730;10.010;2023-02-28T11:00:41;9.57;;;7.32;;
20443;SDS011;10381;53.730;10.010;2023-02-28T11:04:42;7.40;;;6.63;;
20443;SDS011;10381;53.730;10.010;2023-02-28T11:08:53;8.53;;;7.10;;
20443;SDS011;10381;53.730;10.010;2023-02-28T11:12:55;8.60;;;6.43;;
20443;SDS011;10381;53.730;10.010;2023-02-28T11:17:11;19.63;;;6.75;;
20443;SDS011;10381;53.730;10.010;2023-02-28T11:21:21;7.40;;;6.70;;
20443;SDS011;10381;53.730;10.010;2023-02-28T11:25:26;9.95;;;6.95;;
20443;SDS011;10381;53.730;10.010;2023-02-28T11:29:31;9.68;;;7.05;;
20443;SDS011;10381;53.730;10.010;2023-02-28T11:37:52;7.10;;;6.40;;
20443;SDS011;10381;53.730;10.010;2023-02-28T11:46:31;7.55;;;6.85;;
20443;SDS011;10381;53.730;10.010;2023-02-28T11:50:49;8.57;;;7.35;;
20443;SDS011;10381;53.730;10.010;2023-02-28T11:59:29;22.88;;;7.40;;
20443;SDS011;10381;53.730;10.010;2023-02-28T12:04:21;9.60;;;7.38;;
20443;SDS011;10381;53.730;10.010;2023-02-28T12:17:19;7.63;;;7.03;;
20443;SDS011;10381;53.730;10.010;2023-02-28T12:21:56;7.72;;;6.93;;
20443;SDS011;10381;53.730;10.010;2023-02-28T12:34:23;9.80;;;7.32;;
20443;SDS011;10381;53.730;10.010;2023-02-28T12:38:29;9.23;;;6.53;;
20443;SDS011;10381;53.730;10.010;2023-02-28T12:42:39;7.20;;;6.60;;
20443;SDS011;10381;53.730;10.010;2023-02-28T12:46:43;7.85;;;7.05;;
20443;SDS011;10381;53.730;10.010;2023-02-28T12:50:48;8.65;;;7.78;;
20443;SDS011;10381;53.730;10.010;2023-02-28T12:59:16;10.50;;;7.53;;
20443;SDS011;10381;53.730;10.010;2023-02-28T13:11:56;9.27;;;7.30;;
20443;SDS011;10381;53.730;10.010;2023-02-28T13:20:21;7.63;;;6.93;;
20443;SDS011;10381;53.730;10.010;2023-02-28T13:32:54;7.88;;;7.18;;
20443;SDS011;10381;53.730;10.010;2023-02-28T13:45:30;9.38;;;7.22;;
20443;SDS011;10381;53.730;10.010;2023-02-28T13:49:36;7.95;;;7.20;;
20443;SDS011;10381;53.730;10.010;2023-02-28T13:53:40;7.53;;;6.13;;
20443;SDS011;10381;53.730;10.010;2023-02-28T14:02:32;7.65;;;6.90;;
20443;SDS011;10381;53.730;10.010;2023-02-28T14:06:34;7.70;;;7.00;;
20443;SDS011;10381;53.730;10.010;2023-02-28T14:10:39;7.47;;;6.78;;
20443;SDS011;10381;53.730;10.010;2023-02-28T14:18:55;7.50;;;6.82;;
20443;SDS011;10381;53.730;10.010;2023-02-28T14:23:03;7.43;;;6.72;;
20443;SDS011;10381;53.730;10.010;2023-02-28T14:40:30;6.47;;;5.97;;
20443;SDS011;10381;53.730;10.010;2023-02-28T14:44:33;7.28;;;6.50;;
20443;SDS011;10381;53.730;10.010;2023-02-28T14:48:36;6.63;;;6.22;;
20443;SDS011;10381;53.730;10.010;2023-02-28T14:52:38;6.50;;;6.00;;
20443;SDS011;10381;53.730;10.010;2023-02-28T14:56:38;6.18;;;5.78;;
20443;SDS011;10381;53.730;10.010;2023-02-28T15:00:47;7.75;;;6.95;;
20443;SDS011;10381;53.730;10.010;2023-02-28T15:04:52;8.40;;;7.00;;
20443;SDS011;10381;53.730;10.010;2023-02-28T15:09:11;6.85;;;6.35;;
20443;SDS011;10381;53.730;10.010;2023-02-28T15:13:15;13.88;;;7.55;;
20443;SDS011;10381;53.730;10.010;2023-02-28T15:17:19;7.45;;;6.85;;
20443;SDS011;10381;53.730;10.010;2023-02-28T15:21:34;7.70;;;7.00;;
20443;SDS011;10381;53.730;10.010;2023-02-28T15:25:37;9.10;;;7.78;;
20443;SDS011;10381;53.730;10.010;2023-02-28T15:29:44;13.88;;;7.70;;
20443;SDS011;10381;53.730;10.010;2023-02-28T15:33:53;6.60;;;6.00;;
20443;SDS011;10381;53.730;10.010;2023-02-28T15:38:02;6.82;;;5.82;;
20443;SDS011;10381;53.730;10.010;2023-02-28T15:42:22;6.25;;;5.72;;
20443;SDS011;10381;53.730;10.010;2023-02-28T15:46:23;7.32;;;6.18;;
20443;SDS011;10381;53.730;10.010;2023-02-28T15:50:23;7.13;;;6.53;;
20443;SDS011;10381;53.730;10.010;2023-02-28T15:54:27;6.85;;;6.10;;
20443;SDS011;10381;53.730;10.010;2023-02-28T15:58:30;10.30;;;6.53;;
20443;SDS011;10381;53.730;10.010;2023-02-28T16:02:35;8.85;;;6.97;;
20443;SDS011;10381;53.730;10.010;2023-02-28T16:06:42;9.85;;;6.35;;
20443;SDS011;10381;53.730;10.010;2023-02-28T16:11:03;8.43;;;6.72;;
20443;SDS011;10381;53.730;10.010;2023-02-28T16:19:42;6.35;;;5.75;;
20443;SDS011;10381;53.730;10.010;2023-02-28T16:23:42;8.37;;;6.17;;
20443;SDS011;10381;53.730;10.010;2023-02-28T16:27:44;10.52;;;6.43;;
20443;SDS011;10381;53.730;10.010;2023-02-28T16:31:46;8.48;;;7.03;;
20443;SDS011;10381;53.730;10.010;2023-02-28T16:35:47;10.77;;;7.20;;
20443;SDS011;10381;53.730;10.010;2023-02-28T16:39:47;7.47;;;6.78;;
20443;SDS011;10381;53.730;10.010;2023-02-28T16:43:48;9.00;;;6.90;;
20443;SDS011;10381;53.730;10.010;2023-02-28T16:47:50;9.98;;;7.00;;
20443;SDS011;10381;53.730;10.010;2023-02-28T16:51:51;7.43;;;6.72;;
20443;SDS011;10381;53.730;10.010;2023-02-28T16:55:51;8.57;;;7.78;;
20443;SDS011;10381;53.730;10.010;2023-02-28T16:59:51;9.60;;;8.60;;
20443;SDS011;10381;53.730;10.010;2023-02-28T17:03:52;9.60;;;8.70;;
20443;SDS011;10381;53.730;10.010;2023-02-28T17:07:53;10.23;;;9.15;;
20443;SDS011;10381;53.730;10.010;2023-02-28T17:11:53;10.37;;;9.37;;
20443;SDS011;10381;53.730;10.010;2023-02-28T17:15:53;12.00;;;10.27;;
20443;SDS011;10381;53.730;10.010;2023-02-28T17:19:54;13.38;;;10.85;;
20443;SDS011;10381;53.730;10.010;2023-02-28T17:23:54;16.57;;;10.43;;
20443;SDS011;10381;53.730;10.010;2023-02-28T17:27:55;11.77;;;10.45;;
20443;SDS011;10381;53.730;10.010;2023-02-28T17:31:56;10.33;;;9.00;;
20443;SDS011;10381;53.730;10.010;2023-02-28T17:35:56;14.10;;;9.55;;
20443;SDS011;10381;53.730;10.010;2023-02-28T17:39:56;10.90;;;9.13;;
20443;SDS011;10381;53.730;10.010;2023-02-28T17:43:57;18.27;;;9.27;;
20443;SDS011;10381;53.730;10.010;2023-02-28T17:47:57;13.40;;;9.85;;
20443;SDS011;10381;53.730;10.010;2023-02-28T17:51:58;30.65;;;9.07;;
20443;SDS011;10381;53.730;10.010;2023-02-28T17:55:58;10.00;;;8.83;;
20443;SDS011;10381;53.730;10.010;2023-02-28T17:59:58;10.47;;;9.30;;
20443;SDS011;10381;53.730;10.010;2023-02-28T18:03:59;10.50;;;9.50;;
20443;SDS011;10381;53.730;10.010;2023-02-28T18:07:59;19.67;;;10.73;;
20443;SDS011;10381;53.730;10.010;2023-02-28T18:12:00;24.15;;;13.50;;
20443;SDS011;10381;53.730;10.010;2023-02-28T18:16:00;16.80;;;12.50;;
20443;SDS011;10381;53.730;10.010;2023-02-28T18:20:00;25.13;;;13.63;;
20443;SDS011;10381;53.730;10.010;2023-02-28T18:24:01;23.67;;;16.33;;
20443;SDS011;10381;53.730;10.010;2023-02-28T18:28:01;21.20;;;15.38;;
20443;SDS011;10381;53.730;10.010;2023-02-28T18:32:01;21.90;;;17.00;;
20443;SDS011;10381;53.730;10.010;2023-02-28T18:36:02;27.83;;;18.75;;
20443;SDS011;10381;53.730;10.010;2023-02-28T18:40:03;26.25;;;19.05;;
20443;SDS011;10381;53.730;10.010;2023-02-28T18:44:05;34.50;;;20.77;;
20443;SDS011;10381;53.730;10.010;2023-02-28T18:48:06;30.05;;;21.88;;
20443;SDS011;10381;53.730;10.010;2023-02-28T18:52:06;26.07;;;21.07;;
20443;SDS011;10381;53.730;10.010;2023-02-28T18:56:07;29.30;;;21.92;;
20443;SDS011;10381;53.730;10.010;2023-02-28T19:00:12;26.17;;;23.40;;
20443;SDS011;10381;53.730;10.010;2023-02-28T19:04:14;31.45;;;24.30;;
20443;SDS011;10381;53.730;10.010;2023-02-28T19:08:14;29.58;;;26.42;;
20443;SDS011;10381;53.730;10.010;2023-02-28T19:12:14;31.23;;;27.70;;
20443;SDS011;10381;53.730;10.010;2023-02-28T19:16:16;33.65;;;30.27;;
20443;SDS011;10381;53.730;10.010;2023-02-28T19:20:19;35.65;;;31.85;;
20443;SDS011;10381;53.730;10.010;2023-02-28T19:24:19;42.92;;;34.42;;
20443;SDS011;10381;53.730;10.010;2023-02-28T19:28:19;50.53;;;37.97;;
20443;SDS011;10381;53.730;10.010;2023-02-28T19:32:20;51.58;;;37.67;;
20443;SDS011;10381;53.730;10.010;2023-02-28T19:36:21;61.58;;;41.13;;
20443;SDS011;10381;53.730;10.010;2023-02-28T19:40:21;72.53;;;46.33;;
20443;SDS011;10381;53.730;10.010;2023-02-28T19:44:21;61.53;;;41.20;;
20443;SDS011;10381;53.730;10.010;2023-02-28T19:48:22;50.40;;;40.63;;
20443;SDS011;10381;53.730;10.010;2023-02-28T19:52:25;51.13;;;40.03;;
20443;SDS011;10381;53.730;10.010;2023-02-28T19:56:25;41.25;;;36.33;;
20443;SDS011;10381;53.730;10.010;2023-02-28T20:00:25;52.27;;;39.20;;
20443;SDS011;10381;53.730;10.010;2023-02-28T20:04:27;45.45;;;38.97;;
20443;SDS011;10381;53.730;10.010;2023-02-28T20:08:27;45.03;;;40.10;;
20443;SDS011;10381;53.730;10.010;2023-02-28T20:12:28;50.47;;;42.72;;
20443;SDS011;10381;53.730;10.010;2023-02-28T20:16:28;47.30;;;41.40;;
20443;SDS011;10381;53.730;10.010;2023-02-28T20:20:29;47.05;;;42.28;;
20443;SDS011;10381;53.730;10.010;2023-02-28T20:24:30;54.97;;;46.22;;
20443;SDS011;10381;53.730;10.010;2023-02-28T20:28:30;55.67;;;45.63;;
20443;SDS011;10381;53.730;10.010;2023-02-28T20:32:30;64.90;;;48.28;;
20443;SDS011;10381;53.730;10.010;2023-02-28T20:36:32;62.25;;;48.90;;
20443;SDS011;10381;53.730;10.010;2023-02-28T20:40:32;48.85;;;43.58;;
20443;SDS011;10381;53.730;10.010;2023-02-28T20:44:33;51.07;;;45.23;;
20443;SDS011;10381;53.730;10.010;2023-02-28T20:48:33;64.30;;;52.60;;
20443;SDS011;10381;53.730;10.010;2023-02-28T20:52:35;84.15;;;56.35;;
20443;SDS011;10381;53.730;10.010;2023-02-28T20:56:35;66.97;;;56.05;;
20443;SDS011;10381;53.730;10.010;2023-02-28T21:00:36;91.13;;;59.22;;
20443;SDS011;10381;53.730;10.010;2023-02-28T21:04:36;69.10;;;53.42;;
20443;SDS011;10381;53.730;10.010;2023-02-28T21:08:37;107.83;;;64.23;;
20443;SDS011;10381;53.730;10.010;2023-02-28T21:12:38;89.25;;;62.67;;
20443;SDS011;10381;53.730;10.010;2023-02-28T21:16:38;98.63;;;66.87;;
20443;SDS011;10381;53.730;10.010;2023-02-28T21:20:39;108.00;;;64.35;;
20443;SDS011;10381;53.730;10.010;2023-02-28T21:24:40;106.93;;;67.07;;
20443;SDS011;10381;53.730;10.010;2023-02-28T21:28:40;102.93;;;68.13;;
20443;SDS011;10381;53.730;10.010;2023-02-28T21:32:42;111.13;;;66.82;;
20443;SDS011;10381;53.730;10.010;2023-02-28T21:36:43;86.37;;;64.03;;
20443;SDS011;10381;53.730;10.010;2023-02-28T21:40:44;94.90;;;63.70;;
20443;SDS011;10381;53.730;10.010;2023-02-28T21:44:44;102.53;;;64.50;;
20443;SDS011;10381;53.730;10.010;2023-02-28T21:48:45;86.00;;;63.97;;
20443;SDS011;10381;53.730;10.010;2023-02-28T21:52:47;96.38;;;67.30;;
20443;SDS011;10381;53.730;10.010;2023-02-28T21:56:48;98.60;;;63.57;;
20443;SDS011;10381;53.730;10.010;2023-02-28T22:00:49;96.32;;;62.17;;
20443;SDS011;10381;53.730;10.010;2023-02-28T22:04:49;89.93;;;63.95;;
20443;SDS011;10381;53.730;10.010;2023-02-28T22:08:53;84.40;;;64.00;;
20443;SDS011;10381;53.730;10.010;2023-02-28T22:12:56;80.05;;;63.63;;
20443;SDS011;10381;53.730;10.010;2023-02-28T22:17:00;79.55;;;64.20;;
20443;SDS011;10381;53.730;10.010;2023-02-28T22:21:01;74.57;;;60.58;;
20443;SDS011;10381;53.730;10.010;2023-02-28T22:25:02;79.35;;;61.47;;
20443;SDS011;10381;53.730;10.010;2023-02-28T22:29:02;81.90;;;64.93;;
20443;SDS011;10381;53.730;10.010;2023-02-28T22:33:03;78.70;;;64.57;;
20443;SDS011;10381;53.730;10.010;2023-02-28T22:37:03;80.25;;;63.40;;
20443;SDS011;10381;53.730;10.010;2023-02-28T22:41:04;86.17;;;64.17;;
20443;SDS011;10381;53.730;10.010;2023-02-28T22:45:05;84.70;;;64.30;;
20443;SDS011;10381;53.730;10.010;2023-02-28T22:49:05;82.38;;;67.28;;
20443;SDS011;10381;53.730;10.010;2023-02-28T22:53:06;82.22;;;65.75;;
20443;SDS011;10381;53.730;10.010;2023-02-28T22:57:06;89.53;;;66.43;;
20443;SDS011;10381;53.730;10.010;2023-02-28T23:01:13;102.80;;;70.57;;
20443;SDS011;10381;53.730;10.010;2023-02-28T23:05:15;86.18;;;64.72;;
20443;SDS011;10381;53.730;10.010;2023-02-28T23:09:16;76.07;;;61.88;;
20443;SDS011;10381;53.730;10.010;2023-02-28T23:13:18;80.47;;;60.35;;
20443;SDS011;10381;53.730;10.010;2023-02-28T23:17:18;82.78;;;62.53;;
20443;SDS011;10381;53.730;10.010;2023-02-28T23:21:19;81.57;;;63.80;;
20443;SDS011;10381;53.730;10.010;2023-02-28T23:25:19;82.55;;;63.13;;
20443;SDS011;10381;53.730;10.010;2023-02-28T23:29:20;79.25;;;64.18;;
20443;SDS011;10381;53.730;10.010;2023-02-28T23:33:21;83.95;;;65.63;;
20443;SDS011;10381;53.730;10.010;2023-02-28T23:37:22;85.47;;;65.35;;
20443;SDS011;10381;53.730;10.010;2023-02-28T23:41:23;83.45;;;63.70;;
20443;SDS011;10381;53.730;10.010;2023-02-28T23:45:24;89.28;;;66.38;;
20443;SDS011;10381;53.730;10.010;2023-02-28T23:49:24;83.28;;;63.70;;
20443;SDS011;10381;53.730;10.010;2023-02-28T23:53:24;86.07;;;65.93;;
20443;SDS011;10381;53.730;10.010;2023-02-28T23:57:25;81.07;;;67.17;;
